Time,TemperatureF,DewpointF,PressureIn,WindDirection,WindDirectionDegrees,WindSpeedMPH,WindSpeedGustMPH,Humidity,HourlyPrecipIn,Conditions,Clouds,dailyrainin,SoftwareType,DateUTC
2013-06-19 00:04:00,57.4,47.0,30.00,West,278,2.0,4.0,69,0.00,,,0.00,weatherlink.com 1.10,2013-06-19 07:04:00,
2013-06-19 00:19:00,57.0,47.0,30.00,WNW,291,4.0,5.0,70,0.00,,,0.00,weatherlink.com 1.10,2013-06-19 07:19:00,
2013-06-19 00:34:00,56.8,47.0,30.01,WNW,294,5.0,8.0,70,0.00,,,0.00,weatherlink.com 1.10,2013-06-19 07:34:00,
2013-06-19 00:49:00,56.6,47.0,30.01,WNW,287,3.0,5.0,70,0.00,,,0.00,weatherlink.com 1.10,2013-06-19 07:49:00,
2013-06-19 01:04:00,56.4,47.0,30.01,WNW,285,1.0,5.0,70,0.00,,,0.00,weatherlink.com 1.10,2013-06-19 08:04:00,
2013-06-19 01:19:00,56.0,47.0,30.01,WNW,294,0.0,3.0,71,0.00,,,0.00,weatherlink.com 1.10,2013-06-19 08:19:00,
2013-06-19 01:35:00,55.4,46.0,30.01,SW,227,1.0,3.0,72,0.00,,,0.00,weatherlink.com 1.10,2013-06-19 08:35:00,
2013-06-19 01:50:00,54.9,46.0,30.00,SW,218,3.0,4.0,72,0.00,,,0.00,weatherlink.com 1.10,2013-06-19 08:50:00,
2013-06-19 02:05:00,54.0,46.0,30.00,SW,235,2.0,4.0,75,0.00,,,0.00,weatherlink.com 1.10,2013-06-19 09:05:00,
2013-06-19 02:20:00,53.5,46.0,30.00,SSW,194,2.0,3.0,76,0.00,,,0.00,weatherlink.com 1.10,2013-06-19 09:20:00,
2013-06-19 02:35:00,53.3,46.0,30.00,SSW,211,1.0,4.0,77,0.00,,,0.00,weatherlink.com 1.10,2013-06-19 09:35:00,
2013-06-19 02:50:00,53.1,46.0,30.00,SSW,199,2.0,3.0,77,0.00,,,0.00,weatherlink.com 1.10,2013-06-19 09:50:00,
2013-06-19 03:05:00,52.9,46.0,30.00,SSW,193,1.0,5.0,78,0.00,,,0.00,weatherlink.com 1.10,2013-06-19 10:05:00,
2013-06-19 03:20:00,52.9,46.0,30.00,West,261,4.0,5.0,78,0.00,,,0.00,weatherlink.com 1.10,2013-06-19 10:20:00,
2013-06-19 03:35:00,52.6,46.0,30.01,SSW,210,1.0,3.0,79,0.00,,,0.00,weatherlink.com 1.10,2013-06-19 10:35:00,
2013-06-19 03:50:00,52.3,46.0,30.00,SSW,193,1.0,3.0,79,0.00,,,0.00,weatherlink.com 1.10,2013-06-19 10:50:00,
2013-06-19 04:05:00,51.8,46.0,30.00,SSE,148,2.0,3.0,80,0.00,,,0.00,weatherlink.com 1.10,2013-06-19 11:05:00,
2013-06-19 04:20:00,51.6,46.0,30.00,SE,135,1.0,3.0,81,0.00,,,0.00,weatherlink.com 1.10,2013-06-19 11:20:00,
2013-06-19 04:35:00,51.7,46.0,30.00,ESE,111,0.0,1.0,81,0.00,,,0.00,weatherlink.com 1.10,2013-06-19 11:35:00,
2013-06-19 04:50:00,51.2,46.0,30.01,ESE,120,0.0,0.0,81,0.00,,,0.00,weatherlink.com 1.10,2013-06-19 11:50:00,
2013-06-19 05:05:00,51.0,46.0,30.01,SE,130,0.0,0.0,82,0.00,,,0.00,weatherlink.com 1.10,2013-06-19 12:05:00,
2013-06-19 05:20:00,50.9,46.0,30.01,SE,127,0.0,0.0,82,0.00,,,0.00,weatherlink.com 1.10,2013-06-19 12:20:00,
2013-06-19 05:35:00,50.7,46.0,30.00,SE,131,0.0,0.0,83,0.00,,,0.00,weatherlink.com 1.10,2013-06-19 12:35:00,
2013-06-19 05:51:00,50.2,45.0,30.01,SSE,163,3.0,3.0,83,0.00,,,0.00,weatherlink.com 1.10,2013-06-19 12:51:00,
2013-06-19 06:05:00,50.2,46.0,30.02,ESE,122,1.0,3.0,84,0.00,,,0.00,weatherlink.com 1.10,2013-06-19 13:05:00,
2013-06-19 06:20:00,50.5,46.0,30.02,SSE,153,0.0,0.0,84,0.00,,,0.00,weatherlink.com 1.10,2013-06-19 13:20:00,
2013-06-19 06:35:00,52.1,47.0,30.02,SSE,152,0.0,0.0,83,0.00,,,0.00,weatherlink.com 1.10,2013-06-19 13:35:00,
2013-06-19 06:50:00,55.3,48.0,30.02,SE,124,0.0,0.0,77,0.00,,,0.00,weatherlink.com 1.10,2013-06-19 13:50:00,
2013-06-19 07:05:00,58.0,49.0,30.03,SE,124,0.0,0.0,72,0.00,,,0.00,weatherlink.com 1.10,2013-06-19 14:05:00,
2013-06-19 07:20:00,58.9,48.0,30.03,SE,128,0.0,2.0,68,0.00,,,0.00,weatherlink.com 1.10,2013-06-19 14:20:00,
2013-06-19 07:35:00,59.1,49.0,30.03,South,188,0.0,0.0,69,0.00,,,0.00,weatherlink.com 1.10,2013-06-19 14:35:00,
2013-06-19 07:50:00,59.5,49.0,30.03,SW,226,0.0,0.0,68,0.00,,,0.00,weatherlink.com 1.10,2013-06-19 14:50:00,
2013-06-19 08:05:00,60.2,49.0,30.03,North,11,0.0,2.0,67,0.00,,,0.00,weatherlink.com 1.10,2013-06-19 15:05:00,
2013-06-19 08:20:00,60.1,49.0,30.04,WSW,257,0.0,5.0,67,0.00,,,0.00,weatherlink.com 1.10,2013-06-19 15:20:00,
2013-06-19 08:36:00,60.8,49.0,30.04,West,280,2.0,5.0,65,0.00,,,0.00,weatherlink.com 1.10,2013-06-19 15:36:00,
2013-06-19 08:51:00,61.3,49.0,30.04,North,349,2.0,7.0,64,0.00,,,0.00,weatherlink.com 1.10,2013-06-19 15:51:00,
2013-06-19 09:06:00,62.7,49.0,30.04,WNW,293,3.0,6.0,62,0.00,,,0.00,weatherlink.com 1.10,2013-06-19 16:06:00,
2013-06-19 09:21:00,64.1,50.0,30.04,NNE,24,2.0,6.0,60,0.00,,,0.00,weatherlink.com 1.10,2013-06-19 16:21:00,
2013-06-19 09:36:00,63.5,49.0,30.04,WNW,295,3.0,12.0,59,0.00,,,0.00,weatherlink.com 1.10,2013-06-19 16:36:00,
2013-06-19 09:51:00,65.6,48.0,30.04,North,358,2.0,8.0,53,0.00,,,0.00,weatherlink.com 1.10,2013-06-19 16:51:00,
2013-06-19 10:06:00,66.1,48.0,30.04,NNW,330,4.0,10.0,52,0.00,,,0.00,weatherlink.com 1.10,2013-06-19 17:06:00,
2013-06-19 10:21:00,66.8,48.0,30.03,NE,50,2.0,6.0,52,0.00,,,0.00,weatherlink.com 1.10,2013-06-19 17:21:00,
2013-06-19 10:36:00,68.1,48.0,30.03,WSW,239,3.0,8.0,48,0.00,,,0.00,weatherlink.com 1.10,2013-06-19 17:36:00,
2013-06-19 10:51:00,69.1,48.0,30.03,WNW,290,1.0,6.0,47,0.00,,,0.00,weatherlink.com 1.10,2013-06-19 17:51:00,
2013-06-19 11:06:00,69.6,47.0,30.03,NE,38,3.0,8.0,45,0.00,,,0.00,weatherlink.com 1.10,2013-06-19 18:06:00,
2013-06-19 11:21:00,71.2,48.0,30.03,NNW,343,4.0,7.0,44,0.00,,,0.00,weatherlink.com 1.10,2013-06-19 18:21:00,
2013-06-19 11:36:00,72.4,47.0,30.03,NNW,337,3.0,7.0,41,0.00,,,0.00,weatherlink.com 1.10,2013-06-19 18:36:00,
2013-06-19 11:51:00,71.8,47.0,30.03,NNW,335,0.0,6.0,42,0.00,,,0.00,weatherlink.com 1.10,2013-06-19 18:51:00,
2013-06-19 12:06:00,73.5,46.0,30.03,West,271,0.0,5.0,38,0.00,,,0.00,weatherlink.com 1.10,2013-06-19 19:06:00,
2013-06-19 12:21:00,74.1,46.0,30.02,SW,235,2.0,6.0,37,0.00,,,0.00,weatherlink.com 1.10,2013-06-19 19:21:00,
2013-06-19 12:36:00,73.9,46.0,30.02,NW,319,5.0,8.0,37,0.00,,,0.00,weatherlink.com 1.10,2013-06-19 19:36:00,
2013-06-19 12:51:00,75.4,47.0,30.01,SSW,195,3.0,6.0,37,0.00,,,0.00,weatherlink.com 1.10,2013-06-19 19:51:00,
2013-06-19 13:06:00,76.8,47.0,30.01,WSW,257,3.0,5.0,35,0.00,,,0.00,weatherlink.com 1.10,2013-06-19 20:06:00,
2013-06-19 13:21:00,77.2,50.0,30.01,SSE,155,2.0,6.0,38,0.00,,,0.00,weatherlink.com 1.10,2013-06-19 20:21:00,
2013-06-19 13:36:00,76.3,51.0,30.00,SSW,195,13.0,14.0,41,0.00,,,0.00,weatherlink.com 1.10,2013-06-19 20:36:00,
2013-06-19 13:51:00,75.3,51.0,30.00,SSW,199,13.0,13.0,42,0.00,,,0.00,weatherlink.com 1.10,2013-06-19 20:51:00,
2013-06-19 14:06:00,75.2,50.0,30.00,South,179,10.0,15.0,41,0.00,,,0.00,weatherlink.com 1.10,2013-06-19 21:06:00,
2013-06-19 14:21:00,76.4,51.0,29.99,South,177,6.0,12.0,41,0.00,,,0.00,weatherlink.com 1.10,2013-06-19 21:21:00,
2013-06-19 14:36:00,76.5,51.0,29.99,SSW,211,8.0,14.0,41,0.00,,,0.00,weatherlink.com 1.10,2013-06-19 21:36:00,
2013-06-19 14:51:00,76.6,50.0,29.98,SW,236,9.0,16.0,40,0.00,,,0.00,weatherlink.com 1.10,2013-06-19 21:51:00,
2013-06-19 15:06:00,76.5,50.0,29.99,SSW,203,13.0,19.0,40,0.00,,,0.00,weatherlink.com 1.10,2013-06-19 22:06:00,
2013-06-19 15:21:00,76.4,50.0,29.98,SSE,147,5.0,15.0,40,0.00,,,0.00,weatherlink.com 1.10,2013-06-19 22:21:00,
2013-06-19 15:37:00,77.7,51.0,29.98,WNW,292,2.0,16.0,39,0.00,,,0.00,weatherlink.com 1.10,2013-06-19 22:37:00,
2013-06-19 15:52:00,78.5,51.0,29.97,West,273,5.0,13.0,38,0.00,,,0.00,weatherlink.com 1.10,2013-06-19 22:52:00,
2013-06-19 16:07:00,79.0,51.0,29.97,SW,225,6.0,13.0,38,0.00,,,0.00,weatherlink.com 1.10,2013-06-19 23:07:00,
2013-06-19 16:22:00,78.6,52.0,29.97,SW,222,8.0,10.0,39,0.00,,,0.00,weatherlink.com 1.10,2013-06-19 23:22:00,
2013-06-19 16:37:00,78.4,52.0,29.97,SW,226,4.0,15.0,40,0.00,,,0.00,weatherlink.com 1.10,2013-06-19 23:37:00,
2013-06-19 16:52:00,78.0,52.0,29.97,WNW,298,7.0,12.0,41,0.00,,,0.00,weatherlink.com 1.10,2013-06-19 23:52:00,
2013-06-19 17:07:00,78.3,52.0,29.97,SW,224,11.0,13.0,40,0.00,,,0.00,weatherlink.com 1.10,2013-06-20 00:07:00,
2013-06-19 17:22:00,78.0,52.0,29.97,South,181,3.0,10.0,41,0.00,,,0.00,weatherlink.com 1.10,2013-06-20 00:22:00,
2013-06-19 17:37:00,78.0,51.0,29.97,WNW,287,7.0,11.0,39,0.00,,,0.00,weatherlink.com 1.10,2013-06-20 00:37:00,
2013-06-19 17:52:00,77.8,52.0,29.97,West,261,8.0,11.0,40,0.00,,,0.00,weatherlink.com 1.10,2013-06-20 00:52:00,
2013-06-19 18:07:00,76.7,51.0,29.96,SE,143,2.0,12.0,41,0.00,,,0.00,weatherlink.com 1.10,2013-06-20 01:07:00,
2013-06-19 18:37:00,77.1,52.0,29.97,SSW,211,5.0,8.0,41,0.00,,,0.00,weatherlink.com 1.10,2013-06-20 01:37:00,
2013-06-19 18:52:00,75.8,51.0,29.97,West,263,6.0,10.0,42,0.00,,,0.00,weatherlink.com 1.10,2013-06-20 01:52:00,
2013-06-19 19:07:00,74.2,52.0,29.98,SW,229,2.0,11.0,46,0.00,,,0.00,weatherlink.com 1.10,2013-06-20 02:07:00,
2013-06-19 19:22:00,73.2,53.0,29.98,WSW,255,4.0,11.0,49,0.00,,,0.00,weatherlink.com 1.10,2013-06-20 02:22:00,
2013-06-19 19:37:00,72.9,53.0,29.98,SW,221,3.0,6.0,49,0.00,,,0.00,weatherlink.com 1.10,2013-06-20 02:37:00,
2013-06-19 19:52:00,72.4,52.0,29.98,West,269,7.0,8.0,49,0.00,,,0.00,weatherlink.com 1.10,2013-06-20 02:52:00,
2013-06-19 20:07:00,71.1,52.0,29.98,SSE,158,2.0,6.0,52,0.00,,,0.00,weatherlink.com 1.10,2013-06-20 03:07:00,
2013-06-19 20:22:00,69.0,52.0,29.98,SSW,200,4.0,9.0,54,0.00,,,0.00,weatherlink.com 1.10,2013-06-20 03:22:00,
2013-06-19 20:37:00,67.6,52.0,29.99,SSW,210,4.0,7.0,57,0.00,,,0.00,weatherlink.com 1.10,2013-06-20 03:37:00,
2013-06-19 20:52:00,67.8,49.0,29.99,WNW,287,2.0,13.0,52,0.00,,,0.00,weatherlink.com 1.10,2013-06-20 03:52:00,
2013-06-19 21:07:00,67.1,49.0,29.99,NW,315,1.0,8.0,53,0.00,,,0.00,weatherlink.com 1.10,2013-06-20 04:07:00,
2013-06-19 21:22:00,66.2,49.0,30.00,NNE,21,3.0,12.0,54,0.00,,,0.00,weatherlink.com 1.10,2013-06-20 04:22:00,
2013-06-19 21:37:00,65.4,49.0,30.00,NNE,18,3.0,9.0,55,0.00,,,0.00,weatherlink.com 1.10,2013-06-20 04:37:00,
2013-06-19 21:52:00,64.6,48.0,30.01,North,354,0.0,9.0,56,0.00,,,0.00,weatherlink.com 1.10,2013-06-20 04:52:00,
2013-06-19 22:07:00,63.8,48.0,30.01,North,350,9.0,12.0,57,0.00,,,0.00,weatherlink.com 1.10,2013-06-20 05:07:00,
2013-06-19 22:22:00,62.9,48.0,30.01,WSW,242,2.0,10.0,58,0.00,,,0.00,weatherlink.com 1.10,2013-06-20 05:22:00,
2013-06-19 22:37:00,62.2,47.0,30.01,North,1,8.0,13.0,59,0.00,,,0.00,weatherlink.com 1.10,2013-06-20 05:37:00,
2013-06-19 22:52:00,61.7,47.0,30.01,NNW,332,1.0,12.0,60,0.00,,,0.00,weatherlink.com 1.10,2013-06-20 05:52:00,
2013-06-19 23:07:00,61.1,47.0,30.01,NW,307,3.0,12.0,61,0.00,,,0.00,weatherlink.com 1.10,2013-06-20 06:07:00,
2013-06-19 23:22:00,60.5,47.0,30.01,NW,306,4.0,9.0,62,0.00,,,0.00,weatherlink.com 1.10,2013-06-20 06:22:00,
2013-06-19 23:37:00,60.0,47.0,30.01,WNW,298,2.0,11.0,63,0.00,,,0.00,weatherlink.com 1.10,2013-06-20 06:37:00,
2013-06-19 23:52:00,59.7,47.0,30.01,SSE,157,1.0,12.0,64,0.00,,,0.00,weatherlink.com 1.10,2013-06-20 06:52:00,